Time;durP1;ratioP1;P1;durP2;ratioP2;P2;SDS_P1;SDS_P2;PMS_P1;PMS_P2;Temp;Humidity;BMP_temperature;BMP_pressure;BME280_temperature;BME280_humidity;BME280_pressure;Samples;Min_cycle;Max_cycle;Signal;HPM_P1;HPM_P2
2023/12/19 00:01:02;;;;;;;0.90;0.73;;;;;2.60;95064.00;;;;7397959;19;20556;-75
2023/12/19 00:03:37;;;;;;;1.03;0.77;;;;;2.20;95056.00;;;;7400602;19;20132;-74
2023/12/19 00:06:05;;;;;;;0.80;0.73;;;;;2.00;95058.00;;;;7401199;19;20133;-77
2023/12/19 00:08:39;;;;;;;1.23;0.97;;;;;1.80;95049.00;;;;7400467;19;20131;-74
2023/12/19 00:11:06;;;;;;;0.83;0.73;;;;;1.60;95045.00;;;;7399111;19;20143;-74
2023/12/19 00:13:41;;;;;;;0.97;0.80;;;;;1.70;95033.00;;;;7398923;19;20148;-76
2023/12/19 00:16:09;;;;;;;0.87;0.70;;;;;2.10;95028.00;;;;7400193;19;20136;-74
2023/12/19 00:18:45;;;;;;;1.00;0.90;;;;;1.80;95020.00;;;;7401232;19;20143;-76
2023/12/19 00:21:19;;;;;;;1.27;0.70;;;;;2.10;95020.00;;;;7399192;19;20510;-75
2023/12/19 00:23:47;;;;;;;1.20;0.93;;;;;2.30;95015.00;;;;7399489;19;20641;-75
2023/12/19 00:26:21;;;;;;;0.70;0.70;;;;;2.50;94995.00;;;;7398729;19;20149;-76
2023/12/19 00:28:49;;;;;;;0.77;0.77;;;;;2.50;94991.00;;;;7398644;19;20140;-75
2023/12/19 00:31:23;;;;;;;0.70;0.63;;;;;2.60;95000.00;;;;7399256;19;20125;-73
2023/12/19 00:33:57;;;;;;;0.70;0.70;;;;;2.30;94980.00;;;;7396392;19;20219;-74
2023/12/19 00:36:31;;;;;;;0.67;0.67;;;;;2.20;94985.00;;;;7399645;19;20153;-76
2023/12/19 00:38:59;;;;;;;1.07;0.87;;;;;2.20;94982.00;;;;7399180;19;20224;-73
2023/12/19 00:41:33;;;;;;;1.10;0.80;;;;;2.50;94976.00;;;;7398234;19;20144;-74
2023/12/19 00:44:07;;;;;;;0.93;0.73;;;;;2.40;94985.00;;;;7398866;19;20630;-73
2023/12/19 00:46:44;;;;;;;0.97;0.87;;;;;2.10;94972.00;;;;7399021;19;20132;-74
2023/12/19 00:49:18;;;;;;;1.27;0.77;;;;;2.20;94975.00;;;;7398464;19;20612;-74
2023/12/19 00:51:48;;;;;;;1.00;0.77;;;;;2.90;94976.00;;;;7397928;19;20148;-75
2023/12/19 00:54:22;;;;;;;0.87;0.57;;;;;3.40;94974.00;;;;7398679;19;20152;-75
2023/12/19 00:56:50;;;;;;;0.90;0.60;;;;;3.30;94970.00;;;;7398698;19;20148;-77
2023/12/19 00:59:25;;;;;;;1.17;0.63;;;;;3.10;94961.00;;;;7395806;19;20622;-75
2023/12/19 01:02:05;;;;;;;1.30;0.70;;;;;2.80;94965.00;;;;7398456;19;20153;-76
2023/12/19 01:04:40;;;;;;;0.90;0.80;;;;;2.50;94972.00;;;;7398236;19;20149;-76
2023/12/19 01:07:14;;;;;;;1.10;0.67;;;;;2.20;94963.00;;;;7398322;19;20120;-76
2023/12/19 01:09:49;;;;;;;0.73;0.67;;;;;2.20;94964.00;;;;7398944;19;20124;-75
2023/12/19 01:12:20;;;;;;;0.77;0.70;;;;;2.20;94975.00;;;;7397815;19;20133;-77
2023/12/19 01:14:54;;;;;;;1.33;0.57;;;;;2.50;94965.00;;;;7397868;19;20140;-75
2023/12/19 01:17:22;;;;;;;0.53;0.53;;;;;2.70;94967.00;;;;7399762;19;20140;-75
2023/12/19 01:19:56;;;;;;;0.70;0.50;;;;;2.30;94968.00;;;;7397970;19;20511;-75
2023/12/19 01:22:25;;;;;;;2.10;0.60;;;;;2.40;94973.00;;;;7398561;19;20550;-78
2023/12/19 01:25:00;;;;;;;0.60;0.53;;;;;2.50;94969.00;;;;7398556;19;20129;-77
2023/12/19 01:27:28;;;;;;;0.50;0.40;;;;;2.80;94983.00;;;;7397953;19;20148;-80
2023/12/19 01:30:02;;;;;;;0.70;0.60;;;;;2.60;94988.00;;;;7398291;19;20605;-74
2023/12/19 01:32:30;;;;;;;0.60;0.60;;;;;2.50;94990.00;;;;7396537;19;20593;-75
2023/12/19 01:35:05;;;;;;;0.70;0.67;;;;;2.60;94988.00;;;;7398754;19;20157;-76
2023/12/19 01:37:33;;;;;;;0.37;0.37;;;;;2.80;94982.00;;;;7397674;19;20133;-76
2023/12/19 01:40:09;;;;;;;0.47;0.37;;;;;2.90;94990.00;;;;7397176;19;20598;-75
2023/12/19 01:42:36;;;;;;;0.60;0.60;;;;;2.90;94990.00;;;;7397426;19;20157;-77
2023/12/19 01:45:12;;;;;;;0.40;0.40;;;;;2.80;94971.00;;;;7397959;19;20162;-75
2023/12/19 01:47:43;;;;;;;0.50;0.50;;;;;2.40;94955.00;;;;7397237;19;20149;-74
2023/12/19 01:50:17;;;;;;;0.97;0.60;;;;;2.60;94971.00;;;;7397150;19;20608;-75
2023/12/19 01:52:57;;;;;;;0.50;0.50;;;;;2.50;94970.00;;;;7397206;19;20146;-75
2023/12/19 01:55:31;;;;;;;1.37;0.50;;;;;2.50;94968.00;;;;7395893;19;20141;-75
2023/12/19 01:57:59;;;;;;;0.60;0.50;;;;;2.90;94971.00;;;;7396861;19;20627;-75
2023/12/19 02:00:40;;;;;;;0.60;0.50;;;;;3.00;94978.00;;;;7397255;19;20212;-77
2023/12/19 02:03:15;;;;;;;0.33;0.33;;;;;2.90;94984.00;;;;7398549;19;20139;-75
2023/12/19 02:05:46;;;;;;;0.60;0.50;;;;;2.90;94975.00;;;;7397280;19;20584;-75
2023/12/19 02:08:21;;;;;;;0.30;0.30;;;;;2.80;94989.00;;;;7398457;19;20140;-76
2023/12/19 02:10:48;;;;;;;0.40;0.40;;;;;2.70;94988.00;;;;7399309;19;20165;-75
2023/12/19 02:13:24;;;;;;;0.40;0.40;;;;;2.60;94978.00;;;;7403669;19;20217;-76
2023/12/19 02:15:52;;;;;;;0.17;0.17;;;;;2.60;94988.00;;;;7405477;19;20599;-77
2023/12/19 02:18:26;;;;;;;0.40;0.37;;;;;2.30;94981.00;;;;7405400;19;20133;-77
2023/12/19 02:20:54;;;;;;;0.40;0.30;;;;;2.50;94970.00;;;;7404075;19;20658;-76
2023/12/19 02:23:29;;;;;;;0.30;0.30;;;;;2.30;94976.00;;;;7402464;19;20586;-74
2023/12/19 02:25:57;;;;;;;2.10;0.70;;;;;2.20;94966.00;;;;7403363;19;20189;-75
2023/12/19 02:28:31;;;;;;;0.33;0.33;;;;;2.50;94955.00;;;;7403642;19;20611;-75
2023/12/19 02:30:58;;;;;;;0.20;0.20;;;;;3.80;94952.00;;;;7405958;19;20155;-75
2023/12/19 02:33:33;;;;;;;0.40;0.40;;;;;4.20;94935.00;;;;7403606;19;20200;-75
2023/12/19 02:36:02;;;;;;;0.67;0.40;;;;;4.60;94927.00;;;;7402879;19;20152;-75
2023/12/19 02:38:36;;;;;;;0.53;0.50;;;;;4.80;94926.00;;;;7404991;19;20156;-75
2023/12/19 02:41:10;;;;;;;0.30;0.30;;;;;5.10;94922.00;;;;7401982;19;20597;-76
2023/12/19 02:43:38;;;;;;;0.80;0.40;;;;;5.40;94924.00;;;;7403851;19;20137;-76
2023/12/19 02:46:22;;;;;;;0.40;0.40;;;;;5.40;94912.00;;;;7403399;19;20545;-76
2023/12/19 02:48:51;;;;;;;0.40;0.40;;;;;5.50;94906.00;;;;7404549;19;20121;-75
2023/12/19 02:51:29;;;;;;;0.67;0.50;;;;;5.10;94916.00;;;;7403857;19;20631;-76
2023/12/19 02:53:58;;;;;;;0.57;0.40;;;;;5.30;94921.00;;;;7403019;19;20525;-76
2023/12/19 02:56:34;;;;;;;0.50;0.50;;;;;5.40;94910.00;;;;7402347;19;20136;-76
2023/12/19 02:59:02;;;;;;;0.40;0.40;;;;;5.40;94921.00;;;;7402903;19;20191;-78
2023/12/19 03:01:42;;;;;;;0.50;0.43;;;;;5.00;94926.00;;;;7398487;19;20168;-78
2023/12/19 03:04:17;;;;;;;0.37;0.37;;;;;4.60;94926.00;;;;7402469;19;20136;-75
2023/12/19 03:06:51;;;;;;;0.30;0.30;;;;;4.20;94927.00;;;;7403726;19;20157;-75
2023/12/19 03:09:25;;;;;;;0.50;0.40;;;;;4.00;94930.00;;;;7400977;19;20484;-76
2023/12/19 03:12:03;;;;;;;0.40;0.40;;;;;3.80;94939.00;;;;7402052;19;20141;-76
2023/12/19 03:14:37;;;;;;;0.43;0.40;;;;;3.50;94932.00;;;;7399854;19;20535;-74
2023/12/19 03:17:05;;;;;;;2.10;0.63;;;;;3.30;94927.00;;;;7403033;19;20149;-74
2023/12/19 03:19:39;;;;;;;0.50;0.47;;;;;3.20;94927.00;;;;7402107;19;20152;-73
2023/12/19 03:22:07;;;;;;;0.60;0.50;;;;;3.20;94926.00;;;;7400700;19;20200;-74
2023/12/19 03:24:41;;;;;;;1.50;0.20;;;;;3.00;94919.00;;;;7403830;19;20136;-74
2023/12/19 03:27:15;;;;;;;1.23;0.60;;;;;2.60;94912.00;;;;7402639;19;20149;-75
2023/12/19 03:29:49;;;;;;;0.30;0.30;;;;;2.00;94920.00;;;;7402329;19;20140;-73
2023/12/19 03:32:18;;;;;;;0.50;0.40;;;;;1.80;94907.00;;;;7402933;19;20141;-74
2023/12/19 03:34:52;;;;;;;0.30;0.30;;;;;1.90;94917.00;;;;7400123;19;20625;-74
2023/12/19 03:37:26;;;;;;;0.30;0.30;;;;;1.80;94911.00;;;;7402601;19;20144;-73
2023/12/19 03:40:00;;;;;;;0.60;0.50;;;;;1.60;94903.00;;;;7403558;19;20630;-75
2023/12/19 03:42:28;;;;;;;0.93;0.87;;;;;1.60;94909.00;;;;7402918;19;20137;-76
2023/12/19 03:45:06;;;;;;;0.93;0.70;;;;;1.80;94903.00;;;;7404089;19;20143;-75
2023/12/19 03:47:41;;;;;;;0.60;0.50;;;;;1.60;94895.00;;;;7402777;19;20117;-74
2023/12/19 03:50:16;;;;;;;1.03;0.80;;;;;1.60;94894.00;;;;7402070;19;20152;-74
2023/12/19 03:52:50;;;;;;;1.00;0.70;;;;;1.40;94888.00;;;;7401952;19;20648;-74
2023/12/19 03:55:18;;;;;;;0.87;0.47;;;;;1.20;94886.00;;;;7401708;19;20141;-75
2023/12/19 03:57:52;;;;;;;1.40;0.70;;;;;1.20;94878.00;;;;7401819;19;20153;-74
2023/12/19 04:00:32;;;;;;;0.90;0.80;;;;;1.30;94888.00;;;;7401630;19;20143;-74
2023/12/19 04:03:14;;;;;;;0.67;0.67;;;;;1.40;94877.00;;;;7401837;19;20163;-76
2023/12/19 04:05:49;;;;;;;0.53;0.50;;;;;1.30;94879.00;;;;7400815;19;20141;-75
2023/12/19 04:08:23;;;;;;;0.73;0.63;;;;;1.50;94886.00;;;;7400442;19;20624;-74
2023/12/19 04:10:57;;;;;;;1.60;0.63;;;;;1.70;94874.00;;;;7400689;19;20144;-76
2023/12/19 04:13:31;;;;;;;0.90;0.60;;;;;1.80;94873.00;;;;7400099;19;20524;-74
2023/12/19 04:16:07;;;;;;;2.87;0.60;;;;;1.70;94867.00;;;;7400307;19;20128;-76
2023/12/19 04:18:41;;;;;;;1.20;0.90;;;;;1.70;94852.00;;;;7402631;19;20132;-75
2023/12/19 04:21:15;;;;;;;0.43;0.43;;;;;1.90;94854.00;;;;7400941;19;20600;-74
2023/12/19 04:23:49;;;;;;;0.70;0.60;;;;;2.10;94856.00;;;;7403059;19;20140;-76
2023/12/19 04:26:19;;;;;;;0.43;0.30;;;;;2.70;94855.00;;;;7400942;19;20633;-76
2023/12/19 04:28:53;;;;;;;0.30;0.30;;;;;2.80;94854.00;;;;7401658;19;20136;-77
2023/12/19 04:31:20;;;;;;;1.13;0.30;;;;;2.90;94855.00;;;;7400967;19;20617;-75
2023/12/19 04:33:48;;;;;;;0.83;0.50;;;;;3.10;94854.00;;;;7397273;19;20130;-75
2023/12/19 04:36:25;;;;;;;3.43;0.43;;;;;3.00;94864.00;;;;7399985;19;20507;-75
2023/12/19 04:39:00;;;;;;;0.50;0.50;;;;;3.20;94850.00;;;;7401532;19;20480;-76
2023/12/19 04:41:34;;;;;;;0.50;0.47;;;;;3.70;94847.00;;;;7400310;19;20608;-77
2023/12/19 04:44:08;;;;;;;0.40;0.40;;;;;4.10;94830.00;;;;7399307;19;20196;-76
2023/12/19 04:46:36;;;;;;;0.40;0.40;;;;;3.90;94830.00;;;;7399666;19;20475;-76
2023/12/19 04:49:10;;;;;;;0.47;0.30;;;;;3.50;94830.00;;;;7400049;19;20647;-76
2023/12/19 04:51:46;;;;;;;0.93;0.60;;;;;4.10;94826.00;;;;7399310;19;20133;-75
2023/12/19 04:54:20;;;;;;;0.37;0.33;;;;;4.40;94827.00;;;;7399691;19;20135;-75
2023/12/19 04:56:50;;;;;;;0.70;0.60;;;;;4.60;94819.00;;;;7398186;19;20148;-75
2023/12/19 04:59:24;;;;;;;0.80;0.60;;;;;4.60;94816.00;;;;7400333;19;20140;-74
2023/12/19 05:01:52;;;;;;;0.50;0.40;;;;;5.00;94816.00;;;;7396747;19;20160;-74
2023/12/19 05:04:27;;;;;;;0.50;0.50;;;;;5.20;94818.00;;;;7399814;19;20571;-75
2023/12/19 05:06:55;;;;;;;0.40;0.37;;;;;5.80;94809.00;;;;7399578;19;20129;-76
2023/12/19 05:09:29;;;;;;;0.50;0.50;;;;;5.60;94814.00;;;;7399559;19;20138;-77
2023/12/19 05:11:57;;;;;;;0.50;0.50;;;;;5.90;94813.00;;;;7399234;19;20133;-76
2023/12/19 05:14:37;;;;;;;0.30;0.30;;;;;5.90;94814.00;;;;7397256;19;20509;-76
2023/12/19 05:17:06;;;;;;;0.37;0.30;;;;;5.80;94819.00;;;;7396608;19;20185;-77
2023/12/19 05:19:40;;;;;;;0.80;0.50;;;;;5.70;94820.00;;;;7398302;19;20165;-75
2023/12/19 05:22:19;;;;;;;0.40;0.40;;;;;6.10;94813.00;;;;7399154;19;20497;-75
2023/12/19 05:24:53;;;;;;;0.43;0.43;;;;;6.30;94802.00;;;;7398930;19;20585;-75
2023/12/19 05:27:21;;;;;;;0.40;0.40;;;;;6.30;94796.00;;;;7399967;19;20489;-76
2023/12/19 05:29:57;;;;;;;0.50;0.50;;;;;6.10;94799.00;;;;7399774;19;20120;-76
2023/12/19 05:32:31;;;;;;;0.87;0.47;;;;;6.20;94788.00;;;;7390101;19;21405;-74
2023/12/19 05:35:06;;;;;;;0.30;0.30;;;;;6.20;94796.00;;;;7385504;19;20487;-76
2023/12/19 05:37:41;;;;;;;0.80;0.40;;;;;6.00;94799.00;;;;7387392;19;21414;-75
2023/12/19 05:40:10;;;;;;;0.40;0.40;;;;;6.20;94800.00;;;;7385027;19;20573;-76
2023/12/19 05:42:44;;;;;;;0.47;0.47;;;;;6.20;94799.00;;;;7388199;19;20601;-75
2023/12/19 05:45:12;;;;;;;1.50;0.43;;;;;6.40;94793.00;;;;7384950;19;20176;-77
2023/12/19 05:47:52;;;;;;;0.70;0.40;;;;;6.50;94786.00;;;;7387104;19;20133;-75
2023/12/19 05:50:20;;;;;;;0.53;0.50;;;;;6.30;94783.00;;;;7386857;19;20152;-77
2023/12/19 05:52:55;;;;;;;0.47;0.40;;;;;6.10;94793.00;;;;7386214;19;20598;-75
2023/12/19 05:55:29;;;;;;;0.30;0.30;;;;;6.20;94787.00;;;;7386377;19;20128;-75
2023/12/19 05:58:03;;;;;;;0.30;0.30;;;;;6.10;94792.00;;;;7385937;19;20219;-75
2023/12/19 06:00:40;;;;;;;0.50;0.50;;;;;5.70;94791.00;;;;7383625;19;20960;-75
2023/12/19 06:03:21;;;;;;;1.27;0.70;;;;;6.00;94796.00;;;;7385295;19;20511;-77
2023/12/19 06:05:49;;;;;;;0.30;0.30;;;;;5.80;94789.00;;;;7384909;19;20129;-75
2023/12/19 06:08:23;;;;;;;0.40;0.40;;;;;5.70;94791.00;;;;7385016;19;20140;-74
2023/12/19 06:10:52;;;;;;;0.40;0.40;;;;;5.80;94795.00;;;;7383533;19;20164;-76
2023/12/19 06:13:29;;;;;;;0.63;0.50;;;;;5.60;94791.00;;;;7387564;19;20267;-77
2023/12/19 06:15:57;;;;;;;0.50;0.50;;;;;5.80;94789.00;;;;7385016;19;20470;-74
2023/12/19 06:18:32;;;;;;;2.33;0.40;;;;;5.80;94801.00;;;;7385158;19;20164;-74
2023/12/19 06:21:07;;;;;;;0.27;0.27;;;;;5.80;94802.00;;;;7383773;19;20907;-75
2023/12/19 06:23:41;;;;;;;0.20;0.20;;;;;5.70;94808.00;;;;7384764;19;20140;-76
2023/12/19 06:26:09;;;;;;;0.60;0.40;;;;;5.30;94804.00;;;;7382817;19;20157;-75
2023/12/19 06:28:47;;;;;;;0.30;0.30;;;;;5.30;94816.00;;;;7384238;19;20457;-76
2023/12/19 06:31:22;;;;;;;0.83;0.40;;;;;5.10;94820.00;;;;7385543;19;20144;-77
2023/12/19 06:33:50;;;;;;;0.30;0.30;;;;;5.00;94825.00;;;;7385674;19;20133;-77
2023/12/19 06:36:31;;;;;;;0.30;0.30;;;;;4.60;94829.00;;;;7383985;19;20620;-76
2023/12/19 06:39:00;;;;;;;0.43;0.40;;;;;4.50;94829.00;;;;7384828;19;20176;-76
2023/12/19 06:41:36;;;;;;;1.70;0.40;;;;;4.00;94831.00;;;;7384638;19;20148;-75
2023/12/19 06:44:04;;;;;;;0.40;0.40;;;;;4.00;94824.00;;;;7383726;19;20146;-74
2023/12/19 06:46:38;;;;;;;0.53;0.40;;;;;3.70;94829.00;;;;7383128;19;20144;-74
2023/12/19 06:49:16;;;;;;;0.30;0.30;;;;;3.20;94813.00;;;;7384139;19;20140;-74
2023/12/19 06:51:52;;;;;;;2.63;0.63;;;;;3.00;94818.00;;;;7383630;19;20204;-72
2023/12/19 06:54:27;;;;;;;1.30;1.20;;;;;3.00;94799.00;;;;7382919;19;20596;-74
2023/12/19 06:57:02;;;;;;;2.10;0.50;;;;;3.10;94799.00;;;;7382928;19;20152;-73
2023/12/19 06:59:36;;;;;;;2.43;0.60;;;;;3.60;94790.00;;;;7389632;19;20149;-73
2023/12/19 07:02:16;;;;;;;0.57;0.43;;;;;4.40;94780.00;;;;7390579;19;20196;-74
2023/12/19 07:04:51;;;;;;;0.53;0.50;;;;;4.30;94777.00;;;;7390298;19;20133;-73
2023/12/19 07:07:19;;;;;;;1.07;0.50;;;;;4.90;94762.00;;;;7392339;19;20157;-75
2023/12/19 07:09:47;;;;;;;0.40;0.40;;;;;4.90;94778.00;;;;7391615;19;20145;-73
2023/12/19 07:12:21;;;;;;;0.40;0.40;;;;;4.40;94787.00;;;;7389438;19;20490;-72
2023/12/19 07:14:56;;;;;;;2.07;0.40;;;;;4.50;94786.00;;;;7390474;19;22928;-73
2023/12/19 07:17:24;;;;;;;0.60;0.50;;;;;5.10;94783.00;;;;7390849;19;20691;-73
2023/12/19 07:19:58;;;;;;;0.57;0.50;;;;;4.90;94784.00;;;;7390450;19;20744;-73
2023/12/19 07:22:33;;;;;;;0.33;0.30;;;;;4.90;94784.00;;;;7390836;19;20148;-73
2023/12/19 07:25:08;;;;;;;1.90;0.40;;;;;4.80;94787.00;;;;7389779;19;20510;-73
2023/12/19 07:27:37;;;;;;;0.57;0.50;;;;;4.70;94779.00;;;;7390369;19;20145;-72
2023/12/19 07:30:12;;;;;;;0.53;0.47;;;;;4.60;94782.00;;;;7390461;19;20202;-74
2023/12/19 07:32:51;;;;;;;0.70;0.60;;;;;4.70;94779.00;;;;7388246;19;20177;-73
2023/12/19 07:35:25;;;;;;;1.23;0.60;;;;;5.00;94775.00;;;;7388977;19;20131;-74
2023/12/19 07:38:00;;;;;;;0.80;0.60;;;;;4.60;94772.00;;;;7391401;19;20159;-74
2023/12/19 07:40:37;;;;;;;0.63;0.30;;;;;4.40;94765.00;;;;7389494;19;20151;-73
2023/12/19 07:43:11;;;;;;;1.20;0.43;;;;;4.50;94778.00;;;;7390223;19;20145;-75
2023/12/19 07:45:54;;;;;;;0.37;0.37;;;;;4.70;94776.00;;;;7388027;19;20604;-73
2023/12/19 07:48:29;;;;;;;0.50;0.50;;;;;4.80;94787.00;;;;7387492;19;20145;-73
2023/12/19 07:51:04;;;;;;;0.60;0.60;;;;;5.20;94779.00;;;;7388805;19;20622;-73
2023/12/19 07:53:31;;;;;;;0.23;0.23;;;;;5.30;94776.00;;;;7388832;19;20612;-74
2023/12/19 07:56:07;;;;;;;1.87;0.47;;;;;5.30;94779.00;;;;7392239;19;20148;-75
2023/12/19 07:58:37;;;;;;;0.67;0.40;;;;;5.20;94771.00;;;;7393285;19;20137;-74
2023/12/19 08:01:25;;;;;;;0.50;0.50;;;;;5.30;94774.00;;;;7391531;19;20564;-75
2023/12/19 08:03:59;;;;;;;3.30;0.80;;;;;5.40;94780.00;;;;7391244;19;20673;-74
2023/12/19 08:06:28;;;;;;;0.40;0.30;;;;;6.00;94761.00;;;;7393049;19;20136;-75
2023/12/19 08:09:04;;;;;;;0.40;0.30;;;;;6.20;94754.00;;;;7390647;19;20148;-73
2023/12/19 08:11:38;;;;;;;0.37;0.37;;;;;6.50;94752.00;;;;7391273;19;20125;-74
2023/12/19 08:14:13;;;;;;;0.40;0.40;;;;;6.60;94757.00;;;;7389440;19;20186;-74
2023/12/19 08:16:48;;;;;;;0.40;0.40;;;;;6.20;94743.00;;;;7390216;19;20147;-73
2023/12/19 08:19:16;;;;;;;0.60;0.53;;;;;5.70;94754.00;;;;7390090;19;20133;-74
2023/12/19 08:21:55;;;;;;;0.30;0.30;;;;;5.60;94748.00;;;;7390627;19;20240;-75
2023/12/19 08:24:22;;;;;;;1.43;0.70;;;;;5.50;94756.00;;;;7389505;19;20616;-75
2023/12/19 08:26:57;;;;;;;0.70;0.70;;;;;5.70;94752.00;;;;7390039;19;20175;-73
2023/12/19 08:29:31;;;;;;;1.97;0.80;;;;;6.00;94735.00;;;;7389638;19;20485;-75
2023/12/19 08:32:05;;;;;;;1.03;0.80;;;;;6.10;94745.00;;;;7389335;19;20144;-73
2023/12/19 08:34:41;;;;;;;0.50;0.50;;;;;6.10;94743.00;;;;7390270;19;20136;-75
2023/12/19 08:37:09;;;;;;;1.07;0.77;;;;;6.60;94745.00;;;;7391184;19;20143;-73
2023/12/19 08:39:43;;;;;;;1.23;0.67;;;;;7.00;94738.00;;;;7389706;19;20143;-73
2023/12/19 08:42:11;;;;;;;0.53;0.50;;;;;6.90;94738.00;;;;7389213;19;20145;-73
2023/12/19 08:44:45;;;;;;;0.60;0.60;;;;;7.50;94727.00;;;;7390637;19;20133;-72
2023/12/19 08:47:19;;;;;;;0.50;0.40;;;;;8.30;94729.00;;;;7390905;19;20137;-73
2023/12/19 08:49:53;;;;;;;2.40;1.20;;;;;8.60;94712.00;;;;7390325;19;20992;-73
2023/12/19 08:52:22;;;;;;;1.52;1.35;;;;;9.00;94717.00;;;;7389439;19;20527;-74
2023/12/19 08:54:52;;;;;;;3.20;1.98;;;;;9.10;94730.00;;;;7389698;19;20162;-74
2023/12/19 08:57:29;;;;;;;3.95;2.75;;;;;9.80;94725.00;;;;7389405;19;20207;-73
2023/12/19 09:00:04;;;;;;;3.08;2.75;;;;;9.80;94728.00;;;;7391848;19;20467;-73
2023/12/19 09:02:52;;;;;;;3.58;3.00;;;;;9.60;94741.00;;;;7390546;19;20496;-74
2023/12/19 09:05:27;;;;;;;4.85;2.55;;;;;9.60;94735.00;;;;7388207;19;20497;-73
2023/12/19 09:07:55;;;;;;;2.53;2.20;;;;;9.70;94721.00;;;;7389108;19;20145;-71
2023/12/19 09:10:30;;;;;;;3.17;2.10;;;;;10.10;94700.00;;;;7387573;19;20188;-70
2023/12/19 09:12:58;;;;;;;3.22;1.80;;;;;10.80;94719.00;;;;7385983;19;20184;-71
2023/12/19 09:15:26;;;;;;;2.00;1.67;;;;;10.50;94726.00;;;;7385831;19;20561;-73
2023/12/19 09:18:00;;;;;;;3.28;2.38;;;;;10.40;94721.00;;;;7386293;19;20160;-70
2023/12/19 09:20:29;;;;;;;3.45;2.17;;;;;10.40;94721.00;;;;7384425;19;20155;-75
2023/12/19 09:23:03;;;;;;;2.72;2.22;;;;;10.10;94722.00;;;;7385010;19;20132;-71
2023/12/19 09:25:37;;;;;;;2.53;2.22;;;;;10.70;94726.00;;;;7384881;19;20545;-76
2023/12/19 09:28:08;;;;;;;3.20;2.25;;;;;10.90;94724.00;;;;7384667;19;20137;-73
2023/12/19 09:30:42;;;;;;;2.55;2.20;;;;;10.10;94724.00;;;;7386016;19;20128;-71
2023/12/19 09:33:18;;;;;;;6.28;2.97;;;;;9.50;94718.00;;;;7384851;19;20502;-73
2023/12/19 09:35:52;;;;;;;4.85;2.40;;;;;8.90;94719.00;;;;7384911;19;20520;-73
2023/12/19 09:38:26;;;;;;;2.42;2.08;;;;;8.80;94712.00;;;;7385434;19;20133;-73
2023/12/19 09:41:04;;;;;;;2.47;2.13;;;;;8.00;94721.00;;;;7388044;19;20476;-73
2023/12/19 09:43:41;;;;;;;4.00;2.58;;;;;7.80;94725.00;;;;7386698;19;20137;-72
2023/12/19 09:46:10;;;;;;;3.60;2.20;;;;;7.90;94729.00;;;;7386861;19;20517;-71
2023/12/19 09:48:49;;;;;;;2.88;2.00;;;;;7.50;94734.00;;;;7386536;19;20168;-73
2023/12/19 09:51:30;;;;;;;4.13;3.03;;;;;6.60;94744.00;;;;7386611;19;20148;-72
2023/12/19 09:54:05;;;;;;;5.28;3.17;;;;;6.00;94735.00;;;;7385721;19;20164;-74
2023/12/19 09:56:39;;;;;;;4.80;3.17;;;;;5.80;94719.00;;;;7385315;19;20156;-72
2023/12/19 09:59:18;;;;;;;4.20;3.20;;;;;6.30;94722.00;;;;7385754;19;20527;-73
2023/12/19 10:01:54;;;;;;;4.43;3.40;;;;;6.30;94716.00;;;;7386539;19;20576;-74
2023/12/19 10:04:28;;;;;;;4.20;3.37;;;;;5.80;94713.00;;;;7384536;19;20204;-74
2023/12/19 10:07:00;;;;;;;5.57;3.80;;;;;5.60;94721.00;;;;7384788;19;20169;-73
2023/12/19 10:09:49;;;;;;;6.17;4.10;;;;;4.90;94713.00;;;;7385617;19;20128;-73
2023/12/19 10:12:27;;;;;;;3.53;3.03;;;;;4.40;94713.00;;;;7385450;19;20136;-74
2023/12/19 10:15:13;;;;;;;4.43;3.33;;;;;4.00;94712.00;;;;7383262;19;20152;-73
2023/12/19 10:18:12;;;;;;;4.50;3.37;;;;;4.10;94708.00;;;;7383330;19;20149;-73
2023/12/19 10:20:40;;;;;;;4.70;3.60;;;;;4.30;94718.00;;;;7386292;19;20148;-75
2023/12/19 10:23:20;;;;;;;4.07;3.40;;;;;4.50;94711.00;;;;7384298;19;20159;-79
2023/12/19 10:25:55;;;;;;;5.13;3.47;;;;;4.90;94713.00;;;;7384725;19;20613;-77
2023/12/19 10:28:30;;;;;;;4.17;3.50;;;;;4.90;94703.00;;;;7384313;19;20141;-75
2023/12/19 10:31:15;;;;;;;4.87;3.87;;;;;5.00;94701.00;;;;7384024;19;20144;-73
2023/12/19 10:33:51;;;;;;;5.33;3.90;;;;;5.20;94690.00;;;;7391123;19;20129;-78
2023/12/19 10:36:31;;;;;;;5.23;3.83;;;;;5.00;94675.00;;;;7391857;19;20154;-75
2023/12/19 10:39:07;;;;;;;5.90;4.67;;;;;5.30;94676.00;;;;7392516;19;20163;-74
2023/12/19 10:41:39;;;;;;;6.27;4.33;;;;;5.20;94667.00;;;;7389454;19;20210;-74
2023/12/19 10:44:14;;;;;;;6.73;5.13;;;;;5.30;94665.00;;;;7391291;19;20152;-76
2023/12/19 10:46:43;;;;;;;8.63;5.27;;;;;5.00;94662.00;;;;7392056;19;20875;-74
2023/12/19 10:49:17;;;;;;;6.07;4.73;;;;;4.90;94659.00;;;;7391712;19;20132;-75
2023/12/19 10:51:50;;;;;;;7.17;4.90;;;;;4.90;94658.00;;;;7392780;19;20601;-74
2023/12/19 10:54:26;;;;;;;7.83;4.77;;;;;5.50;94668.00;;;;7391945;19;20151;-73
2023/12/19 10:57:16;;;;;;;9.83;4.80;;;;;5.30;94657.00;;;;7391138;19;20481;-75
2023/12/19 11:00:21;;;;;;;7.30;5.60;;;;;5.30;94655.00;;;;7393454;19;20500;-75
2023/12/19 11:03:19;;;;;;;6.83;4.73;;;;;5.10;94648.00;;;;7392112;19;20153;-75
2023/12/19 11:05:56;;;;;;;5.10;4.37;;;;;5.20;94642.00;;;;7391108;19;20173;-75
2023/12/19 11:08:32;;;;;;;5.53;4.37;;;;;5.10;94640.00;;;;7391409;19;20147;-75
2023/12/19 11:11:17;;;;;;;5.90;4.30;;;;;5.30;94629.00;;;;7391603;19;20147;-74
2023/12/19 11:13:53;;;;;;;6.77;5.07;;;;;5.30;94621.00;;;;7392770;19;20551;-74
2023/12/19 11:16:45;;;;;;;7.90;5.23;;;;;5.40;94611.00;;;;7393020;19;20133;-74
2023/12/19 11:19:39;;;;;;;8.57;5.87;;;;;5.60;94605.00;;;;7389916;19;20645;-73
2023/12/19 11:22:25;;;;;;;7.80;4.90;;;;;6.00;94613.00;;;;7387733;19;20509;-74
2023/12/19 11:25:22;;;;;;;9.20;6.70;;;;;6.30;94605.00;;;;7391546;19;20480;-76
2023/12/19 11:28:01;;;;;;;8.30;6.43;;;;;5.80;94608.00;;;;7390745;19;20591;-74
2023/12/19 11:30:37;;;;;;;7.80;5.47;;;;;5.60;94619.00;;;;7391611;19;20174;-74
2023/12/19 11:33:07;;;;;;;8.30;5.00;;;;;5.40;94621.00;;;;7392082;19;20139;-73
2023/12/19 11:35:42;;;;;;;5.83;4.83;;;;;5.30;94597.00;;;;7390845;19;20128;-72
2023/12/19 11:38:26;;;;;;;7.13;5.03;;;;;5.00;94605.00;;;;7393328;19;20175;-73
2023/12/19 11:40:58;;;;;;;6.50;4.70;;;;;4.80;94598.00;;;;7391838;19;20129;-75
2023/12/19 11:43:35;;;;;;;5.93;4.90;;;;;4.80;94582.00;;;;7390323;19;20159;-71
2023/12/19 11:46:11;;;;;;;6.97;5.40;;;;;4.70;94592.00;;;;7390701;19;20137;-74
2023/12/19 11:48:50;;;;;;;6.43;4.67;;;;;4.30;94584.00;;;;7390793;19;20180;-74
2023/12/19 11:51:45;;;;;;;6.83;5.87;;;;;4.30;94565.00;;;;7389563;19;20160;-74
2023/12/19 11:54:19;;;;;;;6.70;5.67;;;;;4.00;94577.00;;;;7389929;19;20471;-76
2023/12/19 11:57:00;;;;;;;8.07;4.97;;;;;4.10;94560.00;;;;7391019;19;20596;-74
2023/12/19 11:59:48;;;;;;;5.83;4.80;;;;;4.20;94571.00;;;;7390258;19;20140;-74
2023/12/19 12:02:39;;;;;;;6.47;5.07;;;;;4.20;94565.00;;;;7390240;19;20156;-74
2023/12/19 12:05:16;;;;;;;9.60;6.60;;;;;4.20;94572.00;;;;7384850;19;20592;-74
2023/12/19 12:07:50;;;;;;;9.77;5.90;;;;;4.10;94557.00;;;;7389922;19;20129;-74
2023/12/19 12:10:27;;;;;;;9.03;6.70;;;;;4.00;94550.00;;;;7390797;19;20129;-74
2023/12/19 12:13:01;;;;;;;12.03;6.40;;;;;3.90;94551.00;;;;7390633;19;20149;-74
2023/12/19 12:15:37;;;;;;;8.80;6.20;;;;;3.90;94551.00;;;;7392647;19;20133;-74
2023/12/19 12:18:12;;;;;;;8.80;5.73;;;;;3.70;94555.00;;;;7391940;19;20470;-74
2023/12/19 12:20:47;;;;;;;7.57;5.70;;;;;4.00;94541.00;;;;7390349;19;20152;-73
2023/12/19 12:23:23;;;;;;;7.37;5.40;;;;;4.10;94541.00;;;;7392338;19;20129;-73
2023/12/19 12:25:58;;;;;;;7.63;5.97;;;;;4.00;94529.00;;;;7389852;19;20156;-74
2023/12/19 12:28:33;;;;;;;10.47;7.90;;;;;4.00;94521.00;;;;7389949;19;20161;-74
2023/12/19 12:31:08;;;;;;;9.77;7.73;;;;;3.60;94510.00;;;;7388941;19;20144;-75
2023/12/19 12:33:43;;;;;;;9.33;7.07;;;;;3.80;94512.00;;;;7392188;19;20124;-74
2023/12/19 12:36:20;;;;;;;9.23;6.90;;;;;3.90;94514.00;;;;7389583;19;20614;-74
2023/12/19 12:38:55;;;;;;;9.73;6.90;;;;;4.10;94509.00;;;;7390341;19;20727;-73
2023/12/19 12:41:30;;;;;;;9.30;7.23;;;;;4.20;94507.00;;;;7390559;19;20148;-73
2023/12/19 12:44:12;;;;;;;12.37;7.67;;;;;4.50;94513.00;;;;7393309;19;20143;-75
2023/12/19 12:46:47;;;;;;;8.07;6.47;;;;;4.10;94515.00;;;;7393077;19;20133;-75
2023/12/19 12:49:21;;;;;;;10.37;6.90;;;;;4.20;94504.00;;;;7390902;19;20140;-74
2023/12/19 12:52:04;;;;;;;7.17;5.57;;;;;3.90;94496.00;;;;7391364;19;20196;-75
2023/12/19 12:55:02;;;;;;;6.87;5.77;;;;;3.90;94502.00;;;;7386716;19;20148;-76
2023/12/19 12:57:42;;;;;;;19.23;10.53;;;;;4.00;94469.00;;;;7388278;19;20212;-76
2023/12/19 13:00:11;;;;;;;24.83;12.17;;;;;3.60;94473.00;;;;7387878;19;20154;-76
2023/12/19 13:03:00;;;;;;;17.00;8.77;;;;;3.60;94464.00;;;;7388540;19;20176;-76